Time;durP1;ratioP1;P1;durP2;ratioP2;P2;SDS_P1;SDS_P2;PMS_P1;PMS_P2;Temp;Humidity;BMP_temperature;BMP_pressure;BME280_temperature;BME280_humidity;BME280_pressure;Samples;Min_cycle;Max_cycle;Signal;HPM_P1;HPM_P2
2023/05/28 00:00:30;;;;;;;20.58;9.70;;;10.90;99.90;;;;;;5074154;28;20051;-37
2023/05/28 00:02:56;;;;;;;18.83;8.90;;;11.00;99.90;;;;;;5074946;28;20056;-41
2023/05/28 00:05:22;;;;;;;22.50;9.98;;;10.90;99.90;;;;;;5075358;28;20427;-40
2023/05/28 00:07:48;;;;;;;20.98;9.57;;;10.90;99.90;;;;;;5075503;28;20043;-40
2023/05/28 00:10:14;;;;;;;23.60;9.90;;;10.90;99.90;;;;;;5068422;28;20052;-37
2023/05/28 00:12:40;;;;;;;24.30;9.18;;;10.90;99.90;;;;;;5106984;27;20488;-39
2023/05/28 00:15:07;;;;;;;20.25;9.90;;;10.90;99.90;;;;;;5074860;28;20135;-39
2023/05/28 00:17:33;;;;;;;20.83;9.80;;;10.90;99.90;;;;;;5075300;28;20044;-39
2023/05/28 00:19:58;;;;;;;24.45;10.40;;;10.90;99.90;;;;;;5075797;28;20129;-39
2023/05/28 00:22:25;;;;;;;21.63;10.05;;;10.90;99.90;;;;;;5075348;28;20144;-39
2023/05/28 00:24:50;;;;;;;24.33;12.43;;;10.90;99.90;;;;;;5074927;28;20169;-37
2023/05/28 00:27:16;;;;;;;20.85;10.52;;;11.00;99.90;;;;;;5074486;28;20834;-39
2023/05/28 00:29:43;;;;;;;23.73;11.23;;;10.90;99.90;;;;;;5075528;28;20322;-38
2023/05/28 00:32:09;;;;;;;19.42;10.35;;;10.90;99.90;;;;;;5074129;28;20056;-40
2023/05/28 00:34:35;;;;;;;24.58;11.38;;;10.90;99.90;;;;;;5074626;28;20112;-38
2023/05/28 00:37:01;;;;;;;20.92;11.27;;;10.90;99.90;;;;;;5069846;28;20523;-39
2023/05/28 00:39:26;;;;;;;21.83;11.10;;;10.90;99.90;;;;;;5075506;28;20482;-38
2023/05/28 00:42:02;;;;;;;20.10;10.25;;;10.80;99.90;;;;;;5074519;28;20047;-40
2023/05/28 00:44:29;;;;;;;28.10;10.82;;;10.80;99.90;;;;;;5060151;28;20062;-38
2023/05/28 00:46:55;;;;;;;20.25;10.68;;;10.80;99.90;;;;;;5074381;28;20044;-39
2023/05/28 00:49:22;;;;;;;18.70;9.55;;;10.80;99.90;;;;;;5074864;28;20518;-41
2023/05/28 00:51:48;;;;;;;21.58;9.70;;;10.80;99.90;;;;;;5074236;28;20055;-37
2023/05/28 00:54:15;;;;;;;23.50;9.60;;;10.80;99.90;;;;;;5074264;28;20052;-36
2023/05/28 00:56:41;;;;;;;24.52;11.02;;;10.80;99.90;;;;;;5056635;28;20529;-39
2023/05/28 00:59:07;;;;;;;23.63;10.57;;;10.80;99.90;;;;;;5073038;28;20490;-37
2023/05/28 01:01:35;;;;;;;22.70;10.27;;;10.80;99.90;;;;;;5074362;28;20092;-39
2023/05/28 01:04:01;;;;;;;23.20;11.50;;;10.80;99.90;;;;;;5074133;28;20090;-40
2023/05/28 01:06:28;;;;;;;20.52;10.95;;;10.70;99.90;;;;;;5073818;28;20111;-38
2023/05/28 01:08:55;;;;;;;15.60;10.13;;;10.70;99.90;;;;;;5070970;28;20054;-39
2023/05/28 01:11:21;;;;;;;22.42;10.27;;;10.70;99.90;;;;;;5088081;27;20076;-40
2023/05/28 01:13:47;;;;;;;22.65;10.23;;;10.70;99.90;;;;;;5073847;28;20053;-38
2023/05/28 01:16:13;;;;;;;21.35;11.07;;;10.60;99.90;;;;;;5073151;28;20044;-39
2023/05/28 01:18:40;;;;;;;18.63;9.65;;;10.60;99.90;;;;;;5074013;28;20070;-40
2023/05/28 01:21:07;;;;;;;24.77;10.82;;;10.60;99.90;;;;;;5072261;28;20050;-38
2023/05/28 01:23:45;;;;;;;25.25;10.10;;;10.60;99.90;;;;;;5072879;28;20087;-38
2023/05/28 01:26:13;;;;;;;17.95;9.43;;;10.60;99.90;;;;;;5072222;28;20055;-40
2023/05/28 01:28:44;;;;;;;17.13;9.70;;;10.60;99.90;;;;;;5073114;28;20048;-39
2023/05/28 01:31:10;;;;;;;19.52;10.27;;;10.50;99.90;;;;;;5074163;28;20096;-40
2023/05/28 01:33:36;;;;;;;18.80;9.98;;;10.50;99.90;;;;;;5073640;28;20044;-40
2023/05/28 01:36:05;;;;;;;27.50;11.65;;;10.40;99.90;;;;;;5068441;28;20048;-37
2023/05/28 01:38:33;;;;;;;22.67;10.43;;;10.40;99.90;;;;;;5073647;28;20059;-38
2023/05/28 01:41:00;;;;;;;23.13;10.70;;;10.40;99.90;;;;;;5073766;28;20159;-41
2023/05/28 01:43:27;;;;;;;20.23;10.15;;;10.40;99.90;;;;;;5060346;28;20036;-39
2023/05/28 01:45:54;;;;;;;24.00;10.23;;;10.40;99.90;;;;;;5071906;28;20900;-38
2023/05/28 01:48:20;;;;;;;20.27;10.88;;;10.40;99.90;;;;;;5074303;28;20131;-35
2023/05/28 01:50:46;;;;;;;21.05;10.95;;;10.40;99.90;;;;;;5073298;28;20139;-39
2023/05/28 01:53:12;;;;;;;23.75;10.95;;;10.40;99.90;;;;;;5073975;28;20074;-35
2023/05/28 01:55:38;;;;;;;18.27;10.13;;;10.40;99.90;;;;;;5073357;28;20052;-37
2023/05/28 01:58:04;;;;;;;21.92;10.68;;;10.40;99.90;;;;;;5073685;28;20052;-39
2023/05/28 02:00:31;;;;;;;22.20;11.48;;;10.50;99.90;;;;;;5073086;28;20060;-40
2023/05/28 02:02:57;;;;;;;22.33;11.55;;;10.40;99.90;;;;;;5072881;28;20083;-35
2023/05/28 02:05:22;;;;;;;28.15;11.35;;;10.40;99.90;;;;;;5073370;28;20127;-37
2023/05/28 02:07:48;;;;;;;18.63;10.85;;;10.40;99.90;;;;;;5072150;28;20200;-35
2023/05/28 02:10:14;;;;;;;24.50;11.38;;;10.30;99.90;;;;;;5066252;28;20393;-40
2023/05/28 02:12:40;;;;;;;26.73;12.73;;;10.40;99.90;;;;;;5072039;28;20040;-37
2023/05/28 02:15:06;;;;;;;23.10;11.52;;;10.40;99.90;;;;;;5072760;28;20097;-36
2023/05/28 02:17:32;;;;;;;23.23;12.20;;;10.40;99.90;;;;;;5071544;28;20434;-37
2023/05/28 02:19:58;;;;;;;24.73;10.95;;;10.40;99.90;;;;;;5072994;28;20113;-36
2023/05/28 02:22:23;;;;;;;21.27;11.52;;;10.40;99.90;;;;;;5073781;28;20880;-35
2023/05/28 02:24:49;;;;;;;20.60;11.18;;;10.50;99.90;;;;;;5071592;28;20127;-39
2023/05/28 02:27:16;;;;;;;21.98;10.88;;;10.50;99.90;;;;;;5073440;28;20052;-40
2023/05/28 02:29:43;;;;;;;22.17;10.82;;;10.50;99.90;;;;;;5073343;28;20119;-35
2023/05/28 02:32:08;;;;;;;23.15;11.77;;;10.50;99.90;;;;;;5072766;28;20052;-35
2023/05/28 02:34:34;;;;;;;24.60;11.05;;;10.50;99.90;;;;;;5072511;28;20565;-36
2023/05/28 02:37:01;;;;;;;19.25;9.98;;;10.50;99.90;;;;;;5068693;28;20082;-40
2023/05/28 02:39:26;;;;;;;21.73;10.95;;;10.50;99.90;;;;;;5073164;28;20327;-37
2023/05/28 02:41:52;;;;;;;18.60;10.25;;;10.40;99.90;;;;;;5072969;28;20059;-36
2023/05/28 02:44:18;;;;;;;20.52;10.38;;;10.30;99.90;;;;;;5058265;28;20114;-39
2023/05/28 02:46:44;;;;;;;24.75;12.48;;;10.30;99.90;;;;;;5074226;28;20056;-38
2023/05/28 02:49:10;;;;;;;22.23;12.07;;;10.20;99.90;;;;;;5076079;28;20051;-38
2023/05/28 02:51:35;;;;;;;22.52;10.95;;;10.20;99.90;;;;;;5077040;28;20054;-40
2023/05/28 02:54:01;;;;;;;22.85;11.13;;;10.20;99.90;;;;;;5074862;28;20573;-40
2023/05/28 02:56:27;;;;;;;25.30;12.27;;;10.10;99.90;;;;;;5077180;28;20058;-37
2023/05/28 02:58:52;;;;;;;23.98;12.02;;;10.10;99.90;;;;;;5077514;28;20052;-36
2023/05/28 03:01:18;;;;;;;25.60;11.27;;;10.10;99.90;;;;;;5076867;28;20503;-41
2023/05/28 03:03:44;;;;;;;23.10;10.57;;;10.10;99.90;;;;;;5075594;28;20059;-36
2023/05/28 03:06:10;;;;;;;22.20;11.57;;;10.10;99.90;;;;;;5075072;28;20044;-39
2023/05/28 03:08:36;;;;;;;22.42;10.43;;;10.10;99.90;;;;;;5076187;28;20462;-41
2023/05/28 03:11:02;;;;;;;20.88;10.00;;;10.10;99.90;;;;;;5068274;28;20051;-38
2023/05/28 03:13:27;;;;;;;16.08;9.90;;;10.10;99.90;;;;;;5076350;28;20048;-38
2023/05/28 03:15:53;;;;;;;17.67;10.00;;;10.10;99.90;;;;;;5076594;28;20051;-39
2023/05/28 03:18:19;;;;;;;26.48;11.10;;;10.20;99.90;;;;;;5076399;28;20544;-38
2023/05/28 03:20:44;;;;;;;23.05;10.02;;;10.10;99.90;;;;;;5076750;28;20101;-39
2023/05/28 03:23:10;;;;;;;23.42;10.82;;;10.10;99.90;;;;;;5075903;28;20040;-39
2023/05/28 03:25:36;;;;;;;22.33;10.43;;;10.10;99.90;;;;;;5075850;28;20479;-39
2023/05/28 03:28:01;;;;;;;22.85;9.68;;;10.20;99.90;;;;;;5073738;28;20170;-38
2023/05/28 03:30:27;;;;;;;18.67;10.25;;;10.20;99.90;;;;;;5076523;28;20080;-38
2023/05/28 03:32:53;;;;;;;24.30;11.27;;;10.20;99.90;;;;;;5075712;28;20131;-39
2023/05/28 03:35:18;;;;;;;22.52;10.27;;;10.20;99.90;;;;;;5073664;28;20062;-38
2023/05/28 03:37:44;;;;;;;26.38;11.15;;;10.20;99.90;;;;;;5070386;28;20051;-43
2023/05/28 03:40:10;;;;;;;19.45;10.43;;;10.30;99.90;;;;;;5074950;28;20067;-38
2023/05/28 03:42:37;;;;;;;20.00;10.95;;;10.20;99.90;;;;;;5070690;28;20478;-38
2023/05/28 03:45:04;;;;;;;21.85;9.65;;;10.20;99.90;;;;;;5066556;28;20044;-39
2023/05/28 03:47:31;;;;;;;24.65;11.10;;;10.20;99.90;;;;;;5075857;28;20052;-38
2023/05/28 03:49:58;;;;;;;24.05;10.93;;;10.30;99.90;;;;;;5075681;28;20083;-39
2023/05/28 03:52:24;;;;;;;26.75;10.98;;;10.30;99.90;;;;;;5074794;28;20052;-38
2023/05/28 03:54:50;;;;;;;27.80;11.63;;;10.30;99.90;;;;;;5075123;28;20131;-36
2023/05/28 03:57:16;;;;;;;19.98;10.73;;;10.30;99.90;;;;;;5075032;28;20054;-40
2023/05/28 03:59:41;;;;;;;23.10;11.00;;;10.30;99.90;;;;;;5074796;28;20533;-37
2023/05/28 04:02:07;;;;;;;24.98;11.48;;;10.30;99.90;;;;;;5074203;28;20491;-40
2023/05/28 04:04:32;;;;;;;23.00;10.85;;;10.30;99.90;;;;;;5074826;28;20048;-40
2023/05/28 04:06:58;;;;;;;24.45;10.60;;;10.40;99.90;;;;;;5073286;28;20440;-38
2023/05/28 04:09:24;;;;;;;24.38;10.93;;;10.50;99.90;;;;;;5068728;28;20491;-41
2023/05/28 04:11:50;;;;;;;23.30;10.70;;;10.50;99.90;;;;;;5074310;28;20499;-38
2023/05/28 04:14:15;;;;;;;22.52;10.57;;;10.60;99.90;;;;;;5074982;28;20050;-41
2023/05/28 04:16:41;;;;;;;23.08;10.48;;;10.70;99.90;;;;;;5075706;28;20043;-42
2023/05/28 04:19:07;;;;;;;21.70;10.40;;;11.00;99.90;;;;;;5075552;28;20317;-36
2023/05/28 04:21:32;;;;;;;26.00;10.75;;;11.40;99.90;;;;;;5074734;28;20076;-38
2023/05/28 04:23:58;;;;;;;19.13;9.88;;;12.00;99.90;;;;;;5073752;28;20150;-36
2023/05/28 04:26:24;;;;;;;21.23;9.75;;;12.40;99.90;;;;;;5075654;28;20056;-44
2023/05/28 04:28:52;;;;;;;15.15;9.13;;;12.80;99.90;;;;;;5075666;28;20123;-38
2023/05/28 04:31:18;;;;;;;17.08;8.82;;;13.20;99.90;;;;;;5074990;28;20559;-38
2023/05/28 04:33:47;;;;;;;17.60;8.90;;;13.90;99.90;;;;;;5073409;28;20362;-41
2023/05/28 04:36:15;;;;;;;17.25;8.93;;;14.70;99.90;;;;;;5071099;28;20048;-40
2023/05/28 04:38:41;;;;;;;19.35;8.85;;;15.70;99.90;;;;;;5075674;28;20520;-40
2023/05/28 04:41:07;;;;;;;18.30;8.63;;;16.80;99.90;;;;;;5074653;28;20393;-36
2023/05/28 04:43:35;;;;;;;14.88;7.88;;;17.70;99.90;;;;;;5063019;28;20063;-40
2023/05/28 04:46:03;;;;;;;17.67;9.23;;;18.00;99.90;;;;;;5073521;28;20492;-40
2023/05/28 04:48:31;;;;;;;14.40;8.18;;;17.90;99.90;;;;;;5074735;28;20422;-36
2023/05/28 04:50:57;;;;;;;16.95;8.10;;;17.40;99.90;;;;;;5075443;28;20059;-37
2023/05/28 04:53:22;;;;;;;18.02;8.43;;;17.10;99.90;;;;;;5074502;28;20040;-39
2023/05/28 04:55:48;;;;;;;16.92;8.63;;;17.30;99.90;;;;;;5074712;28;20423;-39
2023/05/28 04:58:14;;;;;;;12.88;7.25;;;17.50;99.90;;;;;;5074760;28;20075;-37
2023/05/28 05:00:40;;;;;;;19.23;8.75;;;17.50;99.90;;;;;;5074947;28;20286;-43
2023/05/28 05:03:05;;;;;;;14.40;8.00;;;17.40;99.90;;;;;;5072351;28;20055;-41
2023/05/28 05:05:31;;;;;;;17.35;8.07;;;17.20;99.90;;;;;;5073454;28;20086;-40
2023/05/28 05:07:56;;;;;;;19.95;8.23;;;16.70;99.90;;;;;;5073812;28;20067;-38
2023/05/28 05:10:22;;;;;;;17.83;9.23;;;16.50;99.90;;;;;;5066744;28;20549;-37
2023/05/28 05:12:48;;;;;;;15.35;8.32;;;16.30;99.90;;;;;;5073414;28;20040;-42
2023/05/28 05:15:13;;;;;;;18.63;8.15;;;16.20;99.90;;;;;;5073154;28;20127;-37
2023/05/28 05:17:40;;;;;;;16.95;8.90;;;16.00;99.90;;;;;;5075159;28;20044;-40
2023/05/28 05:20:07;;;;;;;17.60;8.35;;;15.80;99.90;;;;;;5074130;28;20048;-42
2023/05/28 05:22:32;;;;;;;17.45;8.57;;;15.60;99.90;;;;;;5073818;28;20079;-37
2023/05/28 05:24:58;;;;;;;16.00;8.57;;;15.70;99.90;;;;;;5073724;28;20119;-41
2023/05/28 05:27:24;;;;;;;16.35;9.70;;;16.00;99.90;;;;;;5073882;28;20111;-41
2023/05/28 05:29:49;;;;;;;18.92;8.85;;;16.70;99.90;;;;;;5073894;28;20040;-38
2023/05/28 05:32:15;;;;;;;16.38;8.63;;;17.60;99.90;;;;;;5072933;28;20055;-44
2023/05/28 05:34:40;;;;;;;18.52;8.60;;;17.90;99.90;;;;;;5072325;28;20044;-42
2023/05/28 05:37:06;;;;;;;19.60;9.27;;;18.80;99.90;;;;;;5069446;28;20058;-41
2023/05/28 05:39:32;;;;;;;18.13;8.38;;;20.20;99.90;;;;;;5072924;28;20062;-38
2023/05/28 05:41:57;;;;;;;15.63;7.70;;;20.50;99.90;;;;;;5072868;28;20044;-37
2023/05/28 05:44:23;;;;;;;14.18;8.20;;;21.10;99.90;;;;;;5059177;28;20055;-44
2023/05/28 05:46:49;;;;;;;16.52;8.55;;;21.50;99.90;;;;;;5073828;28;20122;-38
2023/05/28 05:49:15;;;;;;;16.00;8.10;;;22.10;99.90;;;;;;5072188;28;20071;-46
2023/05/28 05:51:40;;;;;;;20.55;7.80;;;22.40;99.90;;;;;;5074167;28;20050;-41
2023/05/28 05:54:06;;;;;;;14.20;6.90;;;22.40;99.90;;;;;;5072972;28;20530;-41
2023/05/28 05:56:32;;;;;;;12.60;7.32;;;23.30;99.90;;;;;;5073670;28;20392;-42
2023/05/28 05:58:58;;;;;;;14.98;8.05;;;23.90;99.90;;;;;;5073212;28;20055;-37
2023/05/28 06:01:24;;;;;;;13.80;7.50;;;24.20;99.90;;;;;;5072461;28;20082;-42
2023/05/28 06:03:50;;;;;;;15.68;7.00;;;25.00;99.90;;;;;;5072787;28;20583;-45
2023/05/28 06:06:16;;;;;;;13.93;7.85;;;25.10;99.50;;;;;;5073155;28;20450;-38
2023/05/28 06:08:42;;;;;;;14.77;7.80;;;25.10;99.60;;;;;;5072256;28;20051;-39
2023/05/28 06:11:09;;;;;;;15.27;7.70;;;25.80;99.50;;;;;;5065648;28;20450;-38
2023/05/28 06:13:35;;;;;;;13.20;7.57;;;25.80;98.10;;;;;;5073780;28;20090;-44
2023/05/28 06:16:02;;;;;;;13.90;7.63;;;26.50;97.40;;;;;;5071991;28;20573;-46
2023/05/28 06:18:30;;;;;;;10.93;6.95;;;27.00;98.20;;;;;;5074545;28;20130;-38
2023/05/28 06:20:56;;;;;;;11.75;7.00;;;27.30;96.70;;;;;;5073383;28;20499;-42
2023/05/28 06:23:22;;;;;;;11.93;6.95;;;27.80;96.60;;;;;;5074805;28;20050;-38
2023/05/28 06:25:48;;;;;;;12.57;7.32;;;26.70;95.10;;;;;;5076629;28;20118;-39
2023/05/28 06:28:13;;;;;;;14.00;7.05;;;25.80;95.50;;;;;;5078358;28;20044;-40
2023/05/28 06:30:42;;;;;;;15.32;7.43;;;24.70;96.70;;;;;;5078205;28;20087;-44
2023/05/28 06:33:09;;;;;;;14.50;8.00;;;24.60;97.40;;;;;;5077622;28;20048;-38
2023/05/28 06:35:35;;;;;;;14.85;8.70;;;24.10;97.30;;;;;;5076401;28;20419;-39
2023/05/28 06:38:01;;;;;;;11.80;8.02;;;24.00;97.70;;;;;;5074806;28;20043;-44
2023/05/28 06:40:27;;;;;;;12.48;8.18;;;24.70;98.30;;;;;;5077723;28;20415;-41
2023/05/28 06:42:52;;;;;;;11.98;7.05;;;25.60;97.40;;;;;;5070628;28;20514;-38
2023/05/28 06:45:18;;;;;;;12.93;7.10;;;25.90;96.90;;;;;;5070987;28;20060;-39
2023/05/28 06:47:45;;;;;;;12.45;7.93;;;26.00;96.30;;;;;;5077569;28;20048;-43
2023/05/28 06:50:11;;;;;;;12.35;7.68;;;25.60;96.20;;;;;;5077602;28;20725;-43
2023/05/28 06:52:37;;;;;;;15.95;7.82;;;25.90;95.80;;;;;;5076766;28;20073;-39
2023/05/28 06:55:05;;;;;;;16.08;8.50;;;25.80;94.80;;;;;;5076213;28;20565;-37
2023/05/28 06:57:32;;;;;;;11.13;7.35;;;26.40;95.60;;;;;;5077279;28;20128;-45
2023/05/28 06:59:58;;;;;;;15.30;8.52;;;26.40;94.90;;;;;;5077155;28;20399;-45
2023/05/28 07:02:24;;;;;;;14.65;7.65;;;27.00;94.40;;;;;;5076570;28;20104;-40
2023/05/28 07:04:49;;;;;;;12.40;7.78;;;27.10;93.50;;;;;;5076286;28;20511;-46
2023/05/28 07:07:15;;;;;;;19.95;7.25;;;27.20;93.10;;;;;;5076308;28;20044;-44
2023/05/28 07:09:41;;;;;;;12.27;7.30;;;27.60;94.30;;;;;;5069159;28;20103;-42
2023/05/28 07:12:06;;;;;;;12.18;6.50;;;27.60;93.00;;;;;;5075245;28;20113;-44
2023/05/28 07:14:32;;;;;;;13.15;6.97;;;27.60;92.80;;;;;;5076153;28;20440;-44
2023/05/28 07:16:58;;;;;;;13.63;7.72;;;26.90;94.20;;;;;;5075764;28;20048;-38
2023/05/28 07:19:24;;;;;;;13.95;6.63;;;26.40;94.40;;;;;;5076868;28;20052;-38
2023/05/28 07:21:49;;;;;;;10.73;6.97;;;25.20;95.80;;;;;;5075469;28;20048;-44
2023/05/28 07:24:15;;;;;;;15.18;8.15;;;24.70;96.80;;;;;;5075528;28;20919;-47
2023/05/28 07:26:40;;;;;;;13.30;7.75;;;24.10;98.30;;;;;;5076326;28;20043;-42
2023/05/28 07:29:06;;;;;;;12.85;7.63;;;23.30;98.50;;;;;;5075881;28;20114;-42
2023/05/28 07:31:32;;;;;;;13.50;6.97;;;22.30;99.30;;;;;;5075816;28;20048;-41
2023/05/28 07:33:58;;;;;;;14.80;8.30;;;22.00;99.90;;;;;;5075729;28;20146;-42
2023/05/28 07:36:23;;;;;;;13.70;7.65;;;22.10;99.90;;;;;;5070577;28;20165;-39
2023/05/28 07:38:50;;;;;;;11.60;6.60;;;21.50;99.90;;;;;;5076065;28;20147;-37
2023/05/28 07:41:16;;;;;;;16.35;8.05;;;21.50;99.90;;;;;;5076052;28;20055;-43
2023/05/28 07:43:41;;;;;;;13.05;7.80;;;21.30;99.90;;;;;;5062461;28;20475;-42
2023/05/28 07:46:07;;;;;;;14.90;7.55;;;21.50;99.90;;;;;;5076239;28;20137;-39
2023/05/28 07:48:32;;;;;;;13.70;7.57;;;21.80;99.90;;;;;;5075786;28;20352;-41
2023/05/28 07:50:59;;;;;;;13.85;7.93;;;22.10;99.90;;;;;;5075583;28;20166;-38
2023/05/28 07:53:25;;;;;;;10.05;6.93;;;21.90;99.90;;;;;;5074970;28;20039;-42
2023/05/28 07:55:50;;;;;;;13.07;7.28;;;22.00;99.90;;;;;;5075485;28;20066;-40
2023/05/28 07:58:16;;;;;;;11.60;6.90;;;22.00;99.90;;;;;;5074757;28;20061;-44
2023/05/28 08:00:42;;;;;;;11.85;7.00;;;22.20;99.30;;;;;;5075650;28;20089;-41
2023/05/28 08:03:07;;;;;;;12.23;8.07;;;21.60;97.40;;;;;;5074919;28;20126;-40
2023/05/28 08:05:33;;;;;;;12.60;8.23;;;21.80;98.10;;;;;;5074457;28;20048;-42
2023/05/28 08:07:59;;;;;;;12.40;7.13;;;21.90;97.80;;;;;;5075567;28;20048;-38
2023/05/28 08:10:25;;;;;;;12.50;7.50;;;22.00;96.90;;;;;;5067639;28;20055;-42
2023/05/28 08:12:50;;;;;;;13.38;7.70;;;21.90;96.70;;;;;;5072934;28;20052;-42
2023/05/28 08:15:16;;;;;;;12.20;7.35;;;22.00;95.90;;;;;;5074852;28;20040;-39
2023/05/28 08:17:42;;;;;;;13.68;8.07;;;21.40;95.70;;;;;;5075282;28;20508;-43
2023/05/28 08:20:09;;;;;;;10.25;7.70;;;21.10;96.60;;;;;;5073722;28;20399;-38
2023/05/28 08:22:35;;;;;;;11.98;7.68;;;21.20;96.80;;;;;;5074695;28;20109;-40
2023/05/28 08:25:01;;;;;;;10.27;7.63;;;20.70;96.30;;;;;;5074528;28;20330;-43
2023/05/28 08:27:27;;;;;;;10.82;7.38;;;20.40;96.80;;;;;;5072830;28;20051;-40
2023/05/28 08:29:52;;;;;;;13.80;7.72;;;20.30;97.50;;;;;;5074872;28;20044;-42
2023/05/28 08:32:18;;;;;;;9.45;7.32;;;20.10;96.90;;;;;;5074436;28;20514;-37
2023/05/28 08:34:44;;;;;;;12.18;8.00;;;20.00;97.00;;;;;;5074472;28;20808;-40
2023/05/28 08:37:10;;;;;;;11.48;7.85;;;20.00;94.90;;;;;;5068745;28;20117;-43
2023/05/28 08:39:36;;;;;;;12.35;7.70;;;20.10;96.40;;;;;;5074456;28;20044;-44
2023/05/28 08:42:02;;;;;;;10.40;7.32;;;20.00;95.20;;;;;;5073392;28;20047;-45
2023/05/28 08:44:28;;;;;;;9.93;7.07;;;20.40;96.10;;;;;;5058904;28;20062;-45
2023/05/28 08:46:55;;;;;;;12.20;6.90;;;20.60;96.10;;;;;;5073686;28;20048;-41
2023/05/28 08:49:30;;;;;;;11.70;7.10;;;20.70;97.30;;;;;;5074379;28;20052;-43
2023/05/28 08:52:02;;;;;;;10.65;6.70;;;20.50;97.10;;;;;;5073570;28;20051;-39
2023/05/28 08:54:29;;;;;;;11.15;6.65;;;21.00;96.80;;;;;;5074263;28;20047;-42
2023/05/28 08:56:55;;;;;;;11.20;7.20;;;20.80;95.10;;;;;;5074314;28;20058;-43
2023/05/28 08:59:22;;;;;;;12.75;7.78;;;20.80;95.70;;;;;;5073967;28;20530;-38
2023/05/28 09:01:50;;;;;;;10.50;7.38;;;21.00;93.40;;;;;;5073186;28;20056;-43
2023/05/28 09:04:15;;;;;;;11.10;6.90;;;21.10;93.60;;;;;;5073637;28;20044;-42
2023/05/28 09:06:41;;;;;;;10.60;7.28;;;21.30;93.10;;;;;;5074742;28;20063;-45
2023/05/28 09:09:11;;;;;;;10.02;7.20;;;21.40;92.90;;;;;;5068412;28;20040;-41
2023/05/28 09:11:37;;;;;;;12.10;7.68;;;21.50;94.10;;;;;;5070605;28;20052;-38
2023/05/28 09:14:12;;;;;;;18.02;7.55;;;21.70;93.80;;;;;;5072271;28;20054;-48
2023/05/28 09:16:43;;;;;;;11.30;6.50;;;21.70;92.30;;;;;;5073310;28;20409;-44
2023/05/28 09:19:09;;;;;;;10.85;6.65;;;21.70;93.20;;;;;;5073705;28;20066;-41
2023/05/28 09:21:36;;;;;;;11.98;8.25;;;21.80;93.90;;;;;;5072977;28;20055;-38
2023/05/28 09:24:03;;;;;;;11.80;7.95;;;21.90;93.80;;;;;;5071800;28;20821;-40
2023/05/28 09:26:33;;;;;;;18.95;7.78;;;21.30;93.00;;;;;;5072213;28;20040;-38
2023/05/28 09:28:59;;;;;;;9.48;6.90;;;21.70;93.20;;;;;;5071287;28;20058;-40
2023/05/28 09:31:32;;;;;;;13.10;8.10;;;21.70;92.90;;;;;;5072855;28;20519;-47
2023/05/28 09:34:00;;;;;;;8.52;6.38;;;21.50;91.80;;;;;;5073040;28;20054;-42
2023/05/28 09:36:26;;;;;;;13.02;7.57;;;21.60;93.00;;;;;;5069334;28;20051;-43
2023/05/28 09:38:52;;;;;;;8.60;6.70;;;21.70;93.00;;;;;;5073334;28;20058;-37
2023/05/28 09:41:25;;;;;;;12.18;7.70;;;21.70;92.90;;;;;;5071711;28;20047;-42
2023/05/28 09:43:59;;;;;;;11.25;6.65;;;21.80;92.40;;;;;;5058433;28;20060;-45
2023/05/28 09:46:28;;;;;;;13.55;8.50;;;21.80;93.30;;;;;;5073377;28;20141;-42
2023/05/28 09:48:54;;;;;;;9.57;7.90;;;21.90;93.10;;;;;;5073011;28;20368;-41
2023/05/28 09:51:23;;;;;;;12.77;8.73;;;21.70;92.90;;;;;;5072493;28;20040;-36
2023/05/28 09:53:55;;;;;;;11.23;8.02;;;21.60;92.30;;;;;;5072982;28;20044;-40
2023/05/28 09:56:22;;;;;;;10.48;7.82;;;21.60;91.10;;;;;;5071146;28;20083;-41
2023/05/28 09:58:52;;;;;;;13.20;8.30;;;21.90;91.60;;;;;;5071894;28;20582;-39
2023/05/28 10:01:21;;;;;;;11.23;8.60;;;21.70;91.90;;;;;;5070834;28;20483;-37
2023/05/28 10:03:51;;;;;;;14.43;10.07;;;22.10;91.90;;;;;;5071036;28;20117;-39
2023/05/28 10:06:21;;;;;;;13.32;11.57;;;22.20;90.90;;;;;;5073579;28;20535;-38
2023/05/28 10:08:53;;;;;;;19.80;10.27;;;22.20;92.30;;;;;;5070484;28;20440;-40
2023/05/28 10:11:33;;;;;;;23.95;11.75;;;22.00;89.70;;;;;;5070453;28;20366;-39
2023/05/28 10:14:00;;;;;;;13.82;9.77;;;21.90;89.70;;;;;;5072723;28;20593;-45
2023/05/28 10:16:26;;;;;;;12.23;9.20;;;21.80;88.30;;;;;;5072754;28;20076;-40
2023/05/28 10:18:53;;;;;;;19.90;10.63;;;21.80;90.50;;;;;;5072940;28;20496;-41
2023/05/28 10:21:19;;;;;;;11.93;9.82;;;22.10;89.10;;;;;;5072333;28;20079;-44
2023/05/28 10:23:46;;;;;;;12.48;9.32;;;22.10;87.10;;;;;;5072757;28;20083;-47
2023/05/28 10:26:14;;;;;;;10.77;9.65;;;22.30;87.00;;;;;;5073407;28;20523;-42
2023/05/28 10:28:39;;;;;;;12.45;10.73;;;22.30;87.90;;;;;;5073542;28;20048;-47
2023/05/28 10:31:07;;;;;;;11.57;9.25;;;22.30;90.60;;;;;;5072498;28;20044;-39
2023/05/28 10:33:43;;;;;;;14.80;10.13;;;21.90;91.30;;;;;;5073175;28;20052;-45
2023/05/28 10:36:11;;;;;;;13.18;10.18;;;22.00;91.00;;;;;;5068714;28;20051;-43
2023/05/28 10:38:44;;;;;;;16.42;10.73;;;22.10;90.30;;;;;;5093850;28;20051;-42
2023/05/28 10:41:10;;;;;;;12.52;9.75;;;21.80;90.70;;;;;;5072421;28;20134;-43
2023/05/28 10:43:39;;;;;;;13.95;10.10;;;22.20;90.60;;;;;;5060144;28;20557;-44
2023/05/28 10:46:20;;;;;;;11.88;9.23;;;22.30;88.30;;;;;;5059884;28;20375;-45
2023/05/28 10:49:05;;;;;;;10.15;9.10;;;22.40;88.70;;;;;;5073489;28;20048;-46
2023/05/28 10:51:46;;;;;;;12.77;9.80;;;22.00;85.40;;;;;;5072311;28;20059;-41
2023/05/28 10:54:22;;;;;;;14.43;9.18;;;22.10;89.60;;;;;;5072419;28;20058;-40
2023/05/28 10:57:08;;;;;;;11.95;10.13;;;22.10;89.60;;;;;;5070391;28;20086;-40
2023/05/28 10:59:48;;;;;;;11.00;8.15;;;21.80;91.20;;;;;;5071946;28;20043;-41
2023/05/28 11:02:21;;;;;;;10.85;8.18;;;22.10;89.30;;;;;;5070679;28;20032;-40
2023/05/28 11:04:51;;;;;;;10.82;9.15;;;22.10;87.30;;;;;;5071542;28;20547;-41
2023/05/28 11:07:17;;;;;;;11.68;8.35;;;22.20;90.40;;;;;;5071875;28;20143;-38
2023/05/28 11:09:48;;;;;;;10.20;8.13;;;22.30;88.90;;;;;;5068954;28;20450;-39
2023/05/28 11:12:14;;;;;;;10.55;7.60;;;22.30;87.20;;;;;;5076000;28;20682;-42
2023/05/28 11:14:40;;;;;;;8.30;6.80;;;22.20;86.80;;;;;;5074253;28;20352;-42
2023/05/28 11:17:11;;;;;;;9.45;6.75;;;22.30;86.40;;;;;;5075591;28;20048;-43
2023/05/28 11:19:45;;;;;;;10.30;5.82;;;22.10;86.40;;;;;;5075997;28;20046;-40
2023/05/28 11:22:12;;;;;;;8.55;5.82;;;22.00;85.70;;;;;;5073356;28;20563;-42
2023/05/28 11:24:50;;;;;;;9.57;5.63;;;21.70;88.50;;;;;;5074783;28;20047;-41
2023/05/28 11:27:16;;;;;;;8.68;5.07;;;21.80;90.10;;;;;;5076408;28;20119;-45
2023/05/28 11:29:42;;;;;;;8.02;4.75;;;21.90;89.90;;;;;;5074895;28;20076;-40
2023/05/28 11:32:07;;;;;;;9.60;5.70;;;22.10;90.90;;;;;;5075432;28;20667;-37
2023/05/28 11:34:33;;;;;;;8.23;4.90;;;22.20;90.50;;;;;;5075491;28;20054;-40
2023/05/28 11:36:59;;;;;;;10.63;5.78;;;22.20;90.10;;;;;;5074307;28;20485;-44
2023/05/28 11:39:25;;;;;;;9.25;4.93;;;22.20;91.30;;;;;;5075295;28;20044;-40
2023/05/28 11:41:50;;;;;;;9.18;4.55;;;22.20;91.20;;;;;;5075126;28;20383;-44
2023/05/28 11:44:21;;;;;;;9.27;4.05;;;22.30;93.80;;;;;;5073058;28;20043;-49
2023/05/28 11:46:50;;;;;;;10.30;4.78;;;22.40;94.00;;;;;;5075509;28;20048;-39
2023/05/28 11:49:16;;;;;;;7.82;4.07;;;22.60;94.40;;;;;;5062700;28;20047;-46
2023/05/28 11:51:41;;;;;;;9.23;4.10;;;22.70;94.70;;;;;;5073355;28;20109;-41
2023/05/28 11:54:07;;;;;;;9.52;4.30;;;22.60;94.20;;;;;;5073711;28;20056;-39
2023/05/28 11:56:34;;;;;;;19.63;5.45;;;22.60;94.80;;;;;;5075485;28;20043;-39
2023/05/28 11:59:01;;;;;;;10.55;4.47;;;22.30;93.40;;;;;;5074057;28;20139;-42
2023/05/28 12:01:31;;;;;;;9.05;3.67;;;22.40;94.70;;;;;;5074659;28;20075;-43
2023/05/28 12:04:06;;;;;;;9.15;4.65;;;22.40;94.40;;;;;;5074944;28;20032;-50
2023/05/28 12:06:33;;;;;;;8.10;4.00;;;22.40;94.60;;;;;;5075480;28;20048;-39
2023/05/28 12:09:05;;;;;;;6.40;3.95;;;22.40;94.50;;;;;;5071955;28;20475;-41
2023/05/28 12:11:31;;;;;;;7.47;4.25;;;22.40;95.60;;;;;;5075567;28;20051;-47
2023/05/28 12:13:59;;;;;;;11.55;4.72;;;22.40;96.30;;;;;;5075639;28;20147;-40
2023/05/28 12:16:26;;;;;;;11.10;5.60;;;22.30;96.80;;;;;;5075666;28;20150;-43
2023/05/28 12:19:00;;;;;;;8.60;4.60;;;22.20;95.90;;;;;;5075108;28;20044;-42
2023/05/28 12:21:25;;;;;;;14.20;5.25;;;22.30;95.90;;;;;;5073280;28;20044;-45
2023/05/28 12:23:54;;;;;;;12.05;5.22;;;22.00;97.70;;;;;;5074150;28;20051;-41
2023/05/28 12:26:21;;;;;;;11.45;5.57;;;21.70;98.20;;;;;;5074541;28;20089;-46
2023/05/28 12:28:47;;;;;;;9.32;5.20;;;21.70;98.50;;;;;;5074673;28;20048;-38
2023/05/28 12:31:14;;;;;;;12.50;5.70;;;21.80;98.30;;;;;;5074312;28;20044;-37
2023/05/28 12:33:39;;;;;;;13.10;5.82;;;21.40;98.50;;;;;;5072948;28;20047;-45